sensor_id;sensor_type;location;lat;lon;timestamp;P1;durP1;ratioP1;P2;durP2;ratioP2
51238;SDS011;38154;47.548;18.828;2022-08-19T00:00:34;7.28;;;3.40;;
51238;SDS011;38154;47.548;18.828;2022-08-19T00:03:01;10.80;;;3.60;;
51238;SDS011;38154;47.548;18.828;2022-08-19T00:05:27;5.57;;;3.78;;
51238;SDS011;38154;47.548;18.828;2022-08-19T00:07:53;5.18;;;3.17;;
51238;SDS011;38154;47.548;18.828;2022-08-19T00:10:19;6.10;;;3.55;;
51238;SDS011;38154;47.548;18.828;2022-08-19T00:12:46;6.75;;;4.18;;
51238;SDS011;38154;47.548;18.828;2022-08-19T00:17:39;5.18;;;3.40;;
51238;SDS011;38154;47.548;18.828;2022-08-19T00:20:07;6.95;;;3.67;;
51238;SDS011;38154;47.548;18.828;2022-08-19T00:22:36;5.35;;;3.00;;
51238;SDS011;38154;47.548;18.828;2022-08-19T00:25:04;5.20;;;3.40;;
51238;SDS011;38154;47.548;18.828;2022-08-19T00:27:31;5.82;;;3.58;;
51238;SDS011;38154;47.548;18.828;2022-08-19T00:29:57;5.05;;;3.45;;
51238;SDS011;38154;47.548;18.828;2022-08-19T00:32:24;4.97;;;3.28;;
51238;SDS011;38154;47.548;18.828;2022-08-19T00:34:51;5.18;;;3.58;;
51238;SDS011;38154;47.548;18.828;2022-08-19T00:37:19;6.37;;;2.87;;
51238;SDS011;38154;47.548;18.828;2022-08-19T00:39:48;4.30;;;3.05;;
51238;SDS011;38154;47.548;18.828;2022-08-19T00:42:16;6.37;;;3.33;;
51238;SDS011;38154;47.548;18.828;2022-08-19T00:44:42;5.25;;;2.62;;
51238;SDS011;38154;47.548;18.828;2022-08-19T00:47:08;4.22;;;3.08;;
51238;SDS011;38154;47.548;18.828;2022-08-19T00:49:39;6.18;;;3.25;;
51238;SDS011;38154;47.548;18.828;2022-08-19T00:52:15;5.20;;;3.30;;
51238;SDS011;38154;47.548;18.828;2022-08-19T00:54:44;5.95;;;3.75;;
51238;SDS011;38154;47.548;18.828;2022-08-19T00:57:14;4.82;;;3.12;;
51238;SDS011;38154;47.548;18.828;2022-08-19T00:59:43;5.53;;;3.70;;
51238;SDS011;38154;47.548;18.828;2022-08-19T01:02:11;3.97;;;3.15;;
51238;SDS011;38154;47.548;18.828;2022-08-19T01:07:03;5.78;;;3.75;;
51238;SDS011;38154;47.548;18.828;2022-08-19T01:09:29;7.07;;;3.65;;
51238;SDS011;38154;47.548;18.828;2022-08-19T01:11:56;5.72;;;3.85;;
51238;SDS011;38154;47.548;18.828;2022-08-19T01:16:48;6.72;;;3.42;;
51238;SDS011;38154;47.548;18.828;2022-08-19T01:19:17;6.00;;;3.42;;
51238;SDS011;38154;47.548;18.828;2022-08-19T01:22:01;10.23;;;3.30;;
51238;SDS011;38154;47.548;18.828;2022-08-19T01:24:31;5.32;;;3.40;;
51238;SDS011;38154;47.548;18.828;2022-08-19T01:26:57;5.82;;;3.65;;
51238;SDS011;38154;47.548;18.828;2022-08-19T01:29:24;7.62;;;3.03;;
51238;SDS011;38154;47.548;18.828;2022-08-19T01:34:18;5.40;;;3.05;;
51238;SDS011;38154;47.548;18.828;2022-08-19T01:36:45;5.45;;;3.15;;
51238;SDS011;38154;47.548;18.828;2022-08-19T01:39:14;10.50;;;3.62;;
51238;SDS011;38154;47.548;18.828;2022-08-19T01:41:42;5.43;;;3.10;;
51238;SDS011;38154;47.548;18.828;2022-08-19T01:44:08;4.22;;;3.12;;
51238;SDS011;38154;47.548;18.828;2022-08-19T01:46:35;6.65;;;3.65;;
51238;SDS011;38154;47.548;18.828;2022-08-19T01:49:02;7.90;;;3.35;;
51238;SDS011;38154;47.548;18.828;2022-08-19T01:51:29;5.60;;;3.70;;
51238;SDS011;38154;47.548;18.828;2022-08-19T01:53:56;5.87;;;3.42;;
51238;SDS011;38154;47.548;18.828;2022-08-19T01:56:22;5.12;;;3.65;;
51238;SDS011;38154;47.548;18.828;2022-08-19T01:58:49;5.70;;;3.20;;
51238;SDS011;38154;47.548;18.828;2022-08-19T02:01:19;4.90;;;3.37;;
51238;SDS011;38154;47.548;18.828;2022-08-19T02:03:45;6.50;;;3.42;;
51238;SDS011;38154;47.548;18.828;2022-08-19T02:06:11;6.50;;;3.67;;
51238;SDS011;38154;47.548;18.828;2022-08-19T02:11:04;5.57;;;3.67;;
51238;SDS011;38154;47.548;18.828;2022-08-19T02:13:31;5.07;;;2.65;;
51238;SDS011;38154;47.548;18.828;2022-08-19T02:15:57;5.22;;;3.33;;
51238;SDS011;38154;47.548;18.828;2022-08-19T02:18:23;5.30;;;3.42;;
51238;SDS011;38154;47.548;18.828;2022-08-19T02:20:49;4.80;;;3.58;;
51238;SDS011;38154;47.548;18.828;2022-08-19T02:23:15;5.87;;;3.45;;
51238;SDS011;38154;47.548;18.828;2022-08-19T02:25:46;4.95;;;3.67;;
51238;SDS011;38154;47.548;18.828;2022-08-19T02:28:13;5.25;;;3.12;;
51238;SDS011;38154;47.548;18.828;2022-08-19T02:30:40;3.67;;;3.00;;
51238;SDS011;38154;47.548;18.828;2022-08-19T02:33:07;4.78;;;3.08;;
51238;SDS011;38154;47.548;18.828;2022-08-19T02:35:33;4.97;;;3.00;;
51238;SDS011;38154;47.548;18.828;2022-08-19T02:37:59;6.22;;;3.15;;
51238;SDS011;38154;47.548;18.828;2022-08-19T02:40:50;4.78;;;3.25;;
51238;SDS011;38154;47.548;18.828;2022-08-19T02:43:18;5.15;;;3.40;;
51238;SDS011;38154;47.548;18.828;2022-08-19T02:45:46;6.10;;;3.42;;
51238;SDS011;38154;47.548;18.828;2022-08-19T02:48:20;6.18;;;3.35;;
51238;SDS011;38154;47.548;18.828;2022-08-19T02:50:47;5.12;;;3.12;;
51238;SDS011;38154;47.548;18.828;2022-08-19T02:53:16;5.93;;;3.50;;
51238;SDS011;38154;47.548;18.828;2022-08-19T02:55:43;7.72;;;3.30;;
51238;SDS011;38154;47.548;18.828;2022-08-19T02:58:11;6.25;;;3.75;;
51238;SDS011;38154;47.548;18.828;2022-08-19T03:03:07;7.20;;;4.43;;
51238;SDS011;38154;47.548;18.828;2022-08-19T03:05:33;5.37;;;3.08;;
51238;SDS011;38154;47.548;18.828;2022-08-19T03:07:59;7.60;;;3.12;;
51238;SDS011;38154;47.548;18.828;2022-08-19T03:10:25;5.90;;;3.30;;
51238;SDS011;38154;47.548;18.828;2022-08-19T03:12:51;4.28;;;2.78;;
51238;SDS011;38154;47.548;18.828;2022-08-19T03:15:17;3.62;;;2.72;;
51238;SDS011;38154;47.548;18.828;2022-08-19T03:17:43;5.05;;;3.08;;
51238;SDS011;38154;47.548;18.828;2022-08-19T03:20:09;5.00;;;3.50;;
51238;SDS011;38154;47.548;18.828;2022-08-19T03:25:00;4.90;;;3.70;;
51238;SDS011;38154;47.548;18.828;2022-08-19T03:27:27;4.55;;;3.10;;
51238;SDS011;38154;47.548;18.828;2022-08-19T03:29:54;3.95;;;2.95;;
51238;SDS011;38154;47.548;18.828;2022-08-19T03:32:20;4.50;;;2.83;;
51238;SDS011;38154;47.548;18.828;2022-08-19T03:34:47;11.85;;;3.75;;
51238;SDS011;38154;47.548;18.828;2022-08-19T03:37:13;5.40;;;3.75;;
51238;SDS011;38154;47.548;18.828;2022-08-19T03:39:39;7.25;;;3.60;;
51238;SDS011;38154;47.548;18.828;2022-08-19T03:42:06;6.43;;;3.45;;
51238;SDS011;38154;47.548;18.828;2022-08-19T03:44:32;4.00;;;3.00;;
51238;SDS011;38154;47.548;18.828;2022-08-19T03:46:59;6.72;;;3.30;;
51238;SDS011;38154;47.548;18.828;2022-08-19T03:49:26;4.55;;;3.35;;
51238;SDS011;38154;47.548;18.828;2022-08-19T03:51:54;5.05;;;3.58;;
51238;SDS011;38154;47.548;18.828;2022-08-19T03:54:23;5.87;;;3.15;;
51238;SDS011;38154;47.548;18.828;2022-08-19T03:56:51;9.63;;;3.90;;
51238;SDS011;38154;47.548;18.828;2022-08-19T03:59:20;4.37;;;3.00;;
51238;SDS011;38154;47.548;18.828;2022-08-19T04:01:55;5.37;;;3.03;;
51238;SDS011;38154;47.548;18.828;2022-08-19T04:04:23;5.75;;;3.78;;
51238;SDS011;38154;47.548;18.828;2022-08-19T04:06:49;5.40;;;3.70;;
51238;SDS011;38154;47.548;18.828;2022-08-19T04:09:17;4.07;;;3.10;;
51238;SDS011;38154;47.548;18.828;2022-08-19T04:11:50;4.50;;;3.35;;
51238;SDS011;38154;47.548;18.828;2022-08-19T04:14:20;7.33;;;3.93;;
51238;SDS011;38154;47.548;18.828;2022-08-19T04:16:49;4.68;;;3.65;;
51238;SDS011;38154;47.548;18.828;2022-08-19T04:19:17;4.78;;;3.47;;
51238;SDS011;38154;47.548;18.828;2022-08-19T04:21:45;6.80;;;3.95;;
51238;SDS011;38154;47.548;18.828;2022-08-19T04:24:15;4.97;;;3.95;;
51238;SDS011;38154;47.548;18.828;2022-08-19T04:26:42;3.90;;;2.83;;
51238;SDS011;38154;47.548;18.828;2022-08-19T04:29:10;4.35;;;2.90;;
51238;SDS011;38154;47.548;18.828;2022-08-19T04:31:39;6.35;;;3.80;;
51238;SDS011;38154;47.548;18.828;2022-08-19T04:34:07;3.65;;;3.17;;
51238;SDS011;38154;47.548;18.828;2022-08-19T04:36:36;5.50;;;3.17;;
51238;SDS011;38154;47.548;18.828;2022-08-19T04:39:04;5.82;;;3.28;;
51238;SDS011;38154;47.548;18.828;2022-08-19T04:41:33;4.93;;;3.20;;
51238;SDS011;38154;47.548;18.828;2022-08-19T04:44:18;4.97;;;3.05;;
51238;SDS011;38154;47.548;18.828;2022-08-19T04:46:48;4.87;;;3.10;;
51238;SDS011;38154;47.548;18.828;2022-08-19T04:49:15;7.75;;;3.22;;
51238;SDS011;38154;47.548;18.828;2022-08-19T04:51:43;4.85;;;2.75;;
51238;SDS011;38154;47.548;18.828;2022-08-19T04:54:11;5.95;;;3.75;;
51238;SDS011;38154;47.548;18.828;2022-08-19T04:56:38;5.68;;;3.67;;
51238;SDS011;38154;47.548;18.828;2022-08-19T04:59:05;5.03;;;3.12;;
51238;SDS011;38154;47.548;18.828;2022-08-19T05:01:32;11.10;;;3.72;;
51238;SDS011;38154;47.548;18.828;2022-08-19T05:03:59;4.57;;;3.00;;
51238;SDS011;38154;47.548;18.828;2022-08-19T05:06:26;5.12;;;3.72;;
51238;SDS011;38154;47.548;18.828;2022-08-19T05:08:54;4.80;;;3.50;;
51238;SDS011;38154;47.548;18.828;2022-08-19T05:11:30;6.28;;;3.92;;
51238;SDS011;38154;47.548;18.828;2022-08-19T05:13:58;3.47;;;2.83;;
51238;SDS011;38154;47.548;18.828;2022-08-19T05:16:24;5.62;;;3.70;;
51238;SDS011;38154;47.548;18.828;2022-08-19T05:18:51;4.60;;;3.17;;
51238;SDS011;38154;47.548;18.828;2022-08-19T05:21:36;5.10;;;3.25;;
51238;SDS011;38154;47.548;18.828;2022-08-19T05:24:21;4.72;;;3.17;;
51238;SDS011;38154;47.548;18.828;2022-08-19T05:26:49;5.03;;;3.35;;
51238;SDS011;38154;47.548;18.828;2022-08-19T05:29:17;4.53;;;3.00;;
51238;SDS011;38154;47.548;18.828;2022-08-19T05:31:44;6.93;;;4.05;;
51238;SDS011;38154;47.548;18.828;2022-08-19T05:34:11;3.15;;;2.65;;
51238;SDS011;38154;47.548;18.828;2022-08-19T05:39:06;4.40;;;2.83;;
51238;SDS011;38154;47.548;18.828;2022-08-19T05:41:34;5.93;;;3.75;;
51238;SDS011;38154;47.548;18.828;2022-08-19T05:44:01;4.40;;;3.08;;
51238;SDS011;38154;47.548;18.828;2022-08-19T05:46:31;4.70;;;3.20;;
51238;SDS011;38154;47.548;18.828;2022-08-19T05:48:57;7.93;;;3.60;;
51238;SDS011;38154;47.548;18.828;2022-08-19T05:53:51;4.45;;;3.40;;
51238;SDS011;38154;47.548;18.828;2022-08-19T05:56:18;4.35;;;3.17;;
51238;SDS011;38154;47.548;18.828;2022-08-19T06:01:11;4.72;;;3.20;;
51238;SDS011;38154;47.548;18.828;2022-08-19T06:03:39;4.00;;;2.67;;
51238;SDS011;38154;47.548;18.828;2022-08-19T06:06:09;4.75;;;3.15;;
51238;SDS011;38154;47.548;18.828;2022-08-19T06:08:37;7.43;;;3.67;;
51238;SDS011;38154;47.548;18.828;2022-08-19T06:11:14;4.47;;;3.08;;
51238;SDS011;38154;47.548;18.828;2022-08-19T06:13:45;3.83;;;2.72;;
51238;SDS011;38154;47.548;18.828;2022-08-19T06:16:14;4.32;;;2.65;;
51238;SDS011;38154;47.548;18.828;2022-08-19T06:18:46;6.35;;;3.05;;
51238;SDS011;38154;47.548;18.828;2022-08-19T06:21:12;4.40;;;3.00;;
51238;SDS011;38154;47.548;18.828;2022-08-19T06:26:04;4.45;;;3.28;;
51238;SDS011;38154;47.548;18.828;2022-08-19T06:30:56;3.53;;;2.45;;
51238;SDS011;38154;47.548;18.828;2022-08-19T06:33:22;3.72;;;2.65;;
51238;SDS011;38154;47.548;18.828;2022-08-19T06:35:47;6.35;;;2.17;;
51238;SDS011;38154;47.548;18.828;2022-08-19T06:38:13;4.28;;;2.60;;
51238;SDS011;38154;47.548;18.828;2022-08-19T06:40:39;7.53;;;3.00;;
51238;SDS011;38154;47.548;18.828;2022-08-19T06:43:05;3.00;;;2.20;;
51238;SDS011;38154;47.548;18.828;2022-08-19T06:45:31;4.70;;;2.80;;
51238;SDS011;38154;47.548;18.828;2022-08-19T06:47:57;3.78;;;2.55;;
51238;SDS011;38154;47.548;18.828;2022-08-19T06:50:23;4.65;;;2.62;;
51238;SDS011;38154;47.548;18.828;2022-08-19T06:52:49;4.32;;;2.67;;
51238;SDS011;38154;47.548;18.828;2022-08-19T06:55:15;3.78;;;2.47;;
51238;SDS011;38154;47.548;18.828;2022-08-19T06:57:41;4.40;;;2.75;;
51238;SDS011;38154;47.548;18.828;2022-08-19T07:00:08;2.22;;;2.03;;
51238;SDS011;38154;47.548;18.828;2022-08-19T07:02:42;6.55;;;2.60;;
51238;SDS011;38154;47.548;18.828;2022-08-19T07:05:09;3.87;;;2.37;;
51238;SDS011;38154;47.548;18.828;2022-08-19T07:07:35;4.95;;;2.70;;
51238;SDS011;38154;47.548;18.828;2022-08-19T07:10:01;2.30;;;2.00;;
51238;SDS011;38154;47.548;18.828;2022-08-19T07:12:29;4.00;;;2.72;;
51238;SDS011;38154;47.548;18.828;2022-08-19T07:14:58;3.33;;;2.35;;
51238;SDS011;38154;47.548;18.828;2022-08-19T07:17:24;4.35;;;2.50;;
51238;SDS011;38154;47.548;18.828;2022-08-19T07:19:50;3.53;;;2.50;;
51238;SDS011;38154;47.548;18.828;2022-08-19T07:22:16;5.97;;;2.25;;
51238;SDS011;38154;47.548;18.828;2022-08-19T07:24:43;5.32;;;1.98;;
51238;SDS011;38154;47.548;18.828;2022-08-19T07:27:09;2.80;;;2.12;;
51238;SDS011;38154;47.548;18.828;2022-08-19T07:29:35;2.95;;;2.17;;
51238;SDS011;38154;47.548;18.828;2022-08-19T07:32:02;3.58;;;2.67;;
51238;SDS011;38154;47.548;18.828;2022-08-19T07:34:29;3.20;;;2.15;;
51238;SDS011;38154;47.548;18.828;2022-08-19T07:36:56;5.22;;;2.10;;
51238;SDS011;38154;47.548;18.828;2022-08-19T07:39:25;4.07;;;2.72;;
51238;SDS011;38154;47.548;18.828;2022-08-19T07:41:54;2.45;;;2.17;;
51238;SDS011;38154;47.548;18.828;2022-08-19T07:44:22;3.78;;;2.33;;
51238;SDS011;38154;47.548;18.828;2022-08-19T07:46:49;2.95;;;2.50;;
51238;SDS011;38154;47.548;18.828;2022-08-19T07:49:17;3.60;;;2.37;;
51238;SDS011;38154;47.548;18.828;2022-08-19T07:51:45;2.42;;;1.98;;
51238;SDS011;38154;47.548;18.828;2022-08-19T07:54:12;2.83;;;2.15;;
51238;SDS011;38154;47.548;18.828;2022-08-19T07:56:38;5.62;;;2.80;;
51238;SDS011;38154;47.548;18.828;2022-08-19T07:59:05;4.18;;;2.25;;
51238;SDS011;38154;47.548;18.828;2022-08-19T08:01:31;4.22;;;2.20;;
51238;SDS011;38154;47.548;18.828;2022-08-19T08:03:57;3.55;;;2.25;;
51238;SDS011;38154;47.548;18.828;2022-08-19T08:06:42;2.97;;;2.67;;
51238;SDS011;38154;47.548;18.828;2022-08-19T08:09:29;3.92;;;2.30;;
51238;SDS011;38154;47.548;18.828;2022-08-19T08:12:02;2.78;;;2.25;;
51238;SDS011;38154;47.548;18.828;2022-08-19T08:14:36;3.90;;;2.40;;
51238;SDS011;38154;47.548;18.828;2022-08-19T08:17:05;2.67;;;2.17;;
51238;SDS011;38154;47.548;18.828;2022-08-19T08:19:31;3.10;;;2.30;;
51238;SDS011;38154;47.548;18.828;2022-08-19T08:21:59;3.22;;;2.28;;
51238;SDS011;38154;47.548;18.828;2022-08-19T08:24:29;3.37;;;2.22;;
51238;SDS011;38154;47.548;18.828;2022-08-19T08:26:59;6.25;;;2.45;;
51238;SDS011;38154;47.548;18.828;2022-08-19T08:29:26;2.03;;;1.75;;
51238;SDS011;38154;47.548;18.828;2022-08-19T08:31:54;5.28;;;2.20;;
51238;SDS011;38154;47.548;18.828;2022-08-19T08:34:20;2.72;;;1.95;;
51238;SDS011;38154;47.548;18.828;2022-08-19T08:36:46;4.15;;;2.17;;
51238;SDS011;38154;47.548;18.828;2022-08-19T08:39:16;3.12;;;2.25;;
51238;SDS011;38154;47.548;18.828;2022-08-19T08:44:22;3.03;;;2.30;;
51238;SDS011;38154;47.548;18.828;2022-08-19T08:46:58;3.12;;;2.40;;
51238;SDS011;38154;47.548;18.828;2022-08-19T08:52:08;5.35;;;4.03;;
51238;SDS011;38154;47.548;18.828;2022-08-19T08:54:46;6.68;;;2.12;;
51238;SDS011;38154;47.548;18.828;2022-08-19T08:58:03;4.70;;;2.40;;
51238;SDS011;38154;47.548;18.828;2022-08-19T09:00:34;4.35;;;2.80;;
51238;SDS011;38154;47.548;18.828;2022-08-19T09:03:03;3.30;;;2.58;;
51238;SDS011;38154;47.548;18.828;2022-08-19T09:05:38;9.32;;;2.33;;
51238;SDS011;38154;47.548;18.828;2022-08-19T09:08:17;5.45;;;2.47;;
51238;SDS011;38154;47.548;18.828;2022-08-19T09:10:51;3.60;;;2.28;;
51238;SDS011;38154;47.548;18.828;2022-08-19T09:13:24;3.03;;;2.12;;
51238;SDS011;38154;47.548;18.828;2022-08-19T09:16:02;3.10;;;2.60;;
51238;SDS011;38154;47.548;18.828;2022-08-19T09:18:40;3.65;;;2.12;;
51238;SDS011;38154;47.548;18.828;2022-08-19T09:21:08;4.18;;;2.28;;
51238;SDS011;38154;47.548;18.828;2022-08-19T09:23:35;2.95;;;2.65;;
51238;SDS011;38154;47.548;18.828;2022-08-19T09:26:24;2.90;;;2.17;;
51238;SDS011;38154;47.548;18.828;2022-08-19T09:28:51;3.37;;;2.40;;
51238;SDS011;38154;47.548;18.828;2022-08-19T09:31:20;8.10;;;2.50;;
51238;SDS011;38154;47.548;18.828;2022-08-19T09:33:47;7.87;;;2.50;;
51238;SDS011;38154;47.548;18.828;2022-08-19T09:36:15;5.72;;;2.78;;
51238;SDS011;38154;47.548;18.828;2022-08-19T09:38:42;2.95;;;2.55;;
51238;SDS011;38154;47.548;18.828;2022-08-19T09:41:09;4.45;;;2.40;;
51238;SDS011;38154;47.548;18.828;2022-08-19T09:43:39;3.22;;;2.40;;
51238;SDS011;38154;47.548;18.828;2022-08-19T09:46:08;3.03;;;2.22;;
51238;SDS011;38154;47.548;18.828;2022-08-19T09:48:35;4.22;;;3.05;;
51238;SDS011;38154;47.548;18.828;2022-08-19T09:51:06;3.53;;;2.65;;
51238;SDS011;38154;47.548;18.828;2022-08-19T09:53:38;3.33;;;2.55;;
51238;SDS011;38154;47.548;18.828;2022-08-19T09:56:05;4.03;;;2.60;;
51238;SDS011;38154;47.548;18.828;2022-08-19T09:58:32;4.35;;;2.28;;
51238;SDS011;38154;47.548;18.828;2022-08-19T10:00:59;3.97;;;2.50;;
51238;SDS011;38154;47.548;18.828;2022-08-19T10:03:26;3.08;;;2.50;;
51238;SDS011;38154;47.548;18.828;2022-08-19T10:05:53;3.70;;;2.72;;
51238;SDS011;38154;47.548;18.828;2022-08-19T10:08:24;3.12;;;2.40;;
51238;SDS011;38154;47.548;18.828;2022-08-19T10:10:52;2.67;;;2.33;;
51238;SDS011;38154;47.548;18.828;2022-08-19T10:13:19;2.53;;;2.03;;
51238;SDS011;38154;47.548;18.828;2022-08-19T10:15:49;5.20;;;3.08;;
51238;SDS011;38154;47.548;18.828;2022-08-19T10:18:16;3.30;;;2.62;;
51238;SDS011;38154;47.548;18.828;2022-08-19T10:20:44;4.25;;;2.62;;
51238;SDS011;38154;47.548;18.828;2022-08-19T10:23:11;8.38;;;3.15;;
51238;SDS011;38154;47.548;18.828;2022-08-19T10:25:38;4.40;;;2.58;;
51238;SDS011;38154;47.548;18.828;2022-08-19T10:28:04;3.28;;;2.55;;
51238;SDS011;38154;47.548;18.828;2022-08-19T10:30:31;4.50;;;2.80;;
51238;SDS011;38154;47.548;18.828;2022-08-19T10:32:57;3.53;;;2.53;;
51238;SDS011;38154;47.548;18.828;2022-08-19T10:35:23;3.60;;;2.50;;
51238;SDS011;38154;47.548;18.828;2022-08-19T10:37:51;2.63;;;2.30;;
51238;SDS011;38154;47.548;18.828;2022-08-19T10:40:17;5.45;;;2.12;;
51238;SDS011;38154;47.548;18.828;2022-08-19T10:42:43;4.05;;;2.28;;
51238;SDS011;38154;47.548;18.828;2022-08-19T10:45:10;2.30;;;2.10;;
51238;SDS011;38154;47.548;18.828;2022-08-19T10:47:36;3.78;;;2.67;;
51238;SDS011;38154;47.548;18.828;2022-08-19T10:50:02;3.60;;;2.45;;
51238;SDS011;38154;47.548;18.828;2022-08-19T10:52:48;2.47;;;2.10;;
51238;SDS011;38154;47.548;18.828;2022-08-19T10:55:15;3.83;;;2.40;;
51238;SDS011;38154;47.548;18.828;2022-08-19T10:58:00;2.47;;;2.05;;
51238;SDS011;38154;47.548;18.828;2022-08-19T11:00:26;3.05;;;2.30;;
51238;SDS011;38154;47.548;18.828;2022-08-19T11:02:52;2.62;;;2.25;;
51238;SDS011;38154;47.548;18.828;2022-08-19T11:05:18;3.33;;;2.40;;
51238;SDS011;38154;47.548;18.828;2022-08-19T11:07:44;3.92;;;2.20;;
51238;SDS011;38154;47.548;18.828;2022-08-19T11:10:12;3.25;;;2.20;;
51238;SDS011;38154;47.548;18.828;2022-08-19T11:12:40;2.80;;;2.00;;
51238;SDS011;38154;47.548;18.828;2022-08-19T11:15:09;4.53;;;2.25;;
51238;SDS011;38154;47.548;18.828;2022-08-19T11:17:37;2.65;;;2.00;;
51238;SDS011;38154;47.548;18.828;2022-08-19T11:20:06;4.10;;;2.10;;
51238;SDS011;38154;47.548;18.828;2022-08-19T11:22:32;2.95;;;2.20;;
51238;SDS011;38154;47.548;18.828;2022-08-19T11:24:58;2.45;;;2.12;;
51238;SDS011;38154;47.548;18.828;2022-08-19T11:27:24;3.15;;;1.87;;
51238;SDS011;38154;47.548;18.828;2022-08-19T11:29:50;2.87;;;2.20;;
51238;SDS011;38154;47.548;18.828;2022-08-19T11:32:16;5.78;;;2.53;;
51238;SDS011;38154;47.548;18.828;2022-08-19T11:34:41;3.50;;;2.22;;
51238;SDS011;38154;47.548;18.828;2022-08-19T11:37:07;3.50;;;2.47;;
51238;SDS011;38154;47.548;18.828;2022-08-19T11:39:34;4.43;;;2.85;;
51238;SDS011;38154;47.548;18.828;2022-08-19T11:42:02;4.57;;;2.85;;
51238;SDS011;38154;47.548;18.828;2022-08-19T11:44:49;4.25;;;3.37;;
51238;SDS011;38154;47.548;18.828;2022-08-19T11:47:15;3.50;;;2.50;;
51238;SDS011;38154;47.548;18.828;2022-08-19T11:49:41;4.22;;;3.30;;
51238;SDS011;38154;47.548;18.828;2022-08-19T11:52:07;7.05;;;3.92;;
51238;SDS011;38154;47.548;18.828;2022-08-19T11:54:34;6.07;;;4.12;;
51238;SDS011;38154;47.548;18.828;2022-08-19T11:57:01;7.15;;;4.75;;
51238;SDS011;38154;47.548;18.828;2022-08-19T11:59:28;6.95;;;4.72;;
51238;SDS011;38154;47.548;18.828;2022-08-19T12:01:54;5.82;;;4.22;;
51238;SDS011;38154;47.548;18.828;2022-08-19T12:04:21;10.55;;;4.85;;
51238;SDS011;38154;47.548;18.828;2022-08-19T12:06:47;8.98;;;4.87;;
51238;SDS011;38154;47.548;18.828;2022-08-19T12:09:15;9.27;;;4.75;;
51238;SDS011;38154;47.548;18.828;2022-08-19T12:11:41;7.95;;;5.70;;
51238;SDS011;38154;47.548;18.828;2022-08-19T12:14:09;8.60;;;5.87;;
51238;SDS011;38154;47.548;18.828;2022-08-19T12:16:37;10.88;;;6.65;;
51238;SDS011;38154;47.548;18.828;2022-08-19T12:19:03;9.43;;;6.18;;
51238;SDS011;38154;47.548;18.828;2022-08-19T12:21:31;10.63;;;5.70;;
51238;SDS011;38154;47.548;18.828;2022-08-19T12:23:58;7.45;;;6.05;;
51238;SDS011;38154;47.548;18.828;2022-08-19T12:26:26;10.90;;;6.10;;
51238;SDS011;38154;47.548;18.828;2022-08-19T12:28:53;17.42;;;6.35;;
51238;SDS011;38154;47.548;18.828;2022-08-19T12:31:20;12.05;;;6.37;;
51238;SDS011;38154;47.548;18.828;2022-08-19T12:33:46;12.23;;;7.05;;
51238;SDS011;38154;47.548;18.828;2022-08-19T12:36:13;13.00;;;6.12;;
51238;SDS011;38154;47.548;18.828;2022-08-19T12:38:41;10.85;;;6.32;;
51238;SDS011;38154;47.548;18.828;2022-08-19T12:41:09;11.40;;;6.57;;
51238;SDS011;38154;47.548;18.828;2022-08-19T12:43:37;13.77;;;7.03;;
51238;SDS011;38154;47.548;18.828;2022-08-19T12:46:03;9.00;;;7.03;;
51238;SDS011;38154;47.548;18.828;2022-08-19T12:48:31;18.73;;;6.20;;
51238;SDS011;38154;47.548;18.828;2022-08-19T12:50:57;9.20;;;6.45;;
51238;SDS011;38154;47.548;18.828;2022-08-19T12:53:23;9.82;;;6.53;;
51238;SDS011;38154;47.548;18.828;2022-08-19T12:55:56;10.05;;;6.60;;
51238;SDS011;38154;47.548;18.828;2022-08-19T12:58:23;9.20;;;6.40;;
51238;SDS011;38154;47.548;18.828;2022-08-19T13:00:49;8.55;;;5.37;;
51238;SDS011;38154;47.548;18.828;2022-08-19T13:03:15;7.62;;;4.90;;
51238;SDS011;38154;47.548;18.828;2022-08-19T13:05:41;7.15;;;5.60;;
51238;SDS011;38154;47.548;18.828;2022-08-19T13:08:07;10.35;;;5.45;;
51238;SDS011;38154;47.548;18.828;2022-08-19T13:10:34;4.53;;;3.25;;
51238;SDS011;38154;47.548;18.828;2022-08-19T13:13:05;6.85;;;3.10;;
51238;SDS011;38154;47.548;18.828;2022-08-19T13:15:34;3.65;;;3.05;;
51238;SDS011;38154;47.548;18.828;2022-08-19T13:18:01;4.60;;;2.75;;
51238;SDS011;38154;47.548;18.828;2022-08-19T13:20:27;4.32;;;2.45;;
51238;SDS011;38154;47.548;18.828;2022-08-19T13:22:54;3.20;;;2.72;;
51238;SDS011;38154;47.548;18.828;2022-08-19T13:25:20;4.00;;;2.35;;
51238;SDS011;38154;47.548;18.828;2022-08-19T13:27:47;6.18;;;3.83;;
51238;SDS011;38154;47.548;18.828;2022-08-19T13:30:15;3.55;;;2.53;;
51238;SDS011;38154;47.548;18.828;2022-08-19T13:33:00;3.60;;;2.03;;
51238;SDS011;38154;47.548;18.828;2022-08-19T13:38:18;6.62;;;1.80;;
51238;SDS011;38154;47.548;18.828;2022-08-19T13:40:46;18.45;;;2.37;;
51238;SDS011;38154;47.548;18.828;2022-08-19T13:43:15;9.60;;;1.70;;
51238;SDS011;38154;47.548;18.828;2022-08-19T13:45:42;11.77;;;2.00;;
51238;SDS011;38154;47.548;18.828;2022-08-19T13:48:09;3.42;;;1.87;;
51238;SDS011;38154;47.548;18.828;2022-08-19T13:50:38;3.50;;;1.75;;
51238;SDS011;38154;47.548;18.828;2022-08-19T13:53:07;2.97;;;1.83;;
51238;SDS011;38154;47.548;18.828;2022-08-19T13:55:34;6.32;;;1.70;;
51238;SDS011;38154;47.548;18.828;2022-08-19T13:58:02;3.47;;;1.92;;
51238;SDS011;38154;47.548;18.828;2022-08-19T14:00:30;3.00;;;1.77;;
51238;SDS011;38154;47.548;18.828;2022-08-19T14:02:58;4.80;;;2.10;;
51238;SDS011;38154;47.548;18.828;2022-08-19T14:05:24;7.95;;;2.40;;
51238;SDS011;38154;47.548;18.828;2022-08-19T14:07:52;3.28;;;1.85;;
51238;SDS011;38154;47.548;18.828;2022-08-19T14:10:18;6.62;;;1.80;;
51238;SDS011;38154;47.548;18.828;2022-08-19T14:12:44;3.95;;;1.87;;
51238;SDS011;38154;47.548;18.828;2022-08-19T14:15:11;7.03;;;2.20;;
51238;SDS011;38154;47.548;18.828;2022-08-19T14:17:38;4.00;;;1.45;;
51238;SDS011;38154;47.548;18.828;2022-08-19T14:20:05;3.08;;;1.77;;
51238;SDS011;38154;47.548;18.828;2022-08-19T14:22:35;3.58;;;1.75;;
51238;SDS011;38154;47.548;18.828;2022-08-19T14:25:03;6.93;;;1.48;;
51238;SDS011;38154;47.548;18.828;2022-08-19T14:27:32;6.15;;;1.20;;
51238;SDS011;38154;47.548;18.828;2022-08-19T14:30:00;5.82;;;1.80;;
51238;SDS011;38154;47.548;18.828;2022-08-19T14:32:25;3.37;;;1.25;;
51238;SDS011;38154;47.548;18.828;2022-08-19T14:34:52;5.20;;;1.62;;
51238;SDS011;38154;47.548;18.828;2022-08-19T14:37:20;2.15;;;1.10;;
51238;SDS011;38154;47.548;18.828;2022-08-19T14:39:47;3.00;;;0.70;;
51238;SDS011;38154;47.548;18.828;2022-08-19T14:42:13;8.10;;;1.00;;
51238;SDS011;38154;47.548;18.828;2022-08-19T14:44:40;2.15;;;0.57;;
51238;SDS011;38154;47.548;18.828;2022-08-19T14:47:07;2.78;;;0.80;;
51238;SDS011;38154;47.548;18.828;2022-08-19T14:49:34;5.62;;;1.40;;
51238;SDS011;38154;47.548;18.828;2022-08-19T14:52:02;5.62;;;2.22;;
51238;SDS011;38154;47.548;18.828;2022-08-19T14:54:29;1.73;;;0.93;;
51238;SDS011;38154;47.548;18.828;2022-08-19T14:56:55;3.00;;;1.45;;
51238;SDS011;38154;47.548;18.828;2022-08-19T14:59:20;2.72;;;1.33;;
51238;SDS011;38154;47.548;18.828;2022-08-19T15:01:46;10.20;;;1.33;;
51238;SDS011;38154;47.548;18.828;2022-08-19T15:04:12;2.87;;;0.65;;
51238;SDS011;38154;47.548;18.828;2022-08-19T15:06:38;5.15;;;1.67;;
51238;SDS011;38154;47.548;18.828;2022-08-19T15:09:04;4.18;;;1.10;;
51238;SDS011;38154;47.548;18.828;2022-08-19T15:11:31;3.28;;;1.02;;
51238;SDS011;38154;47.548;18.828;2022-08-19T15:13:58;3.50;;;0.62;;
51238;SDS011;38154;47.548;18.828;2022-08-19T15:16:25;3.20;;;1.02;;